Songa Calabria — D5OE7 — position and weather

sailwx.info

Track history (hours):
 
Tides and Currents Weather Stations Pressure Air Temp Water Temp Dewpoint Dewpoint Depression Visibility Wind Speed Wind Dir Waves Ship Positions

Songa Calabria

Last reported at 2017-Sep-17 10:03 UTC. Time now 2017-Sep-21 05:28 UTC.
Position N 38°09' E 024°56'.

Length 261 m; draft 9.9 m.

Type: Ship (hazmat cat A). MMSI: 636018105.

Date/timePositionNaut miles runAvg speedWind from/ knotsBaromVisibWave heightAir tempDewpointWater temp
2017-Sep-17 10:03N 38°09' E 024°56'1 8.5
2017-Sep-17 10:00N 38°09' E 024°56'4 8.5
2017-Sep-17 09:30N 38°06' E 024°51'59 8.4
2017-Sep-17 02:24N 37°17' E 024°09'3 8.5
2017-Sep-17 02:00N 37°15' E 024°06'4 8.6
2017-Sep-17 01:30N 37°12' E 024°02'4 8.6
2017-Sep-17 01:00N 37°08' E 023°58'4 8.8
2017-Sep-17 00:30N 37°05' E 023°55'4 8.9
2017-Sep-17 00:00N 37°02' E 023°51'4 8.7
2017-Sep-16 23:30N 36°59' E 023°47'4 8.7
2017-Sep-16 23:00N 36°55' E 023°44'4 8.6
2017-Sep-16 22:30N 36°52' E 023°40'4 8.7
2017-Sep-16 22:00N 36°49' E 023°37'4 8.5
2017-Sep-16 21:30N 36°45' E 023°34'4 8.3
2017-Sep-16 21:00N 36°42' E 023°30'4 8.0
2017-Sep-16 20:30N 36°39' E 023°27'4 8.3
2017-Sep-16 20:00N 36°36' E 023°24'6 8.5
2017-Sep-16 19:17N 36°31' E 023°19'2 8.5
2017-Sep-16 19:00N 36°29' E 023°17'18811.5
2017-Sep-16 02:43N 36°09' E 019°26'420.1
2017-Sep-16 02:30N 36°08' E 019°21'1820.0
2017-Sep-16 01:36N 36°07' E 018°58'5820.4
2017-Sep-15 22:45N 36°02' E 017°46'520.1
2017-Sep-15 22:30N 36°01' E 017°40'6320.3
2017-Sep-15 19:23N 35°56' E 016°22'1120.1
2017-Sep-15 18:51N 35°55' E 016°09'720.1
2017-Sep-15 18:29N 35°55' E 016°00'1020.4
2017-Sep-15 17:59N 35°54' E 015°48'1020.4
2017-Sep-15 17:30N 35°53' E 015°35'1020.2
2017-Sep-15 17:00N 35°52' E 015°23'1020.5
2017-Sep-15 16:30N 35°50' E 015°11'1020.3
2017-Sep-15 16:00N 35°50' E 014°58'1020.1
2017-Sep-15 15:30N 35°49' E 014°46'918.6
2017-Sep-15 15:00N 35°49' E 014°34'1 3.0
2017-Sep-15 14:30N 35°49' E 014°32'0 0.0
2017-Sep-15 13:55N 35°49' E 014°32'0 0.0
2017-Sep-15 13:28N 35°49' E 014°32'0 0.0
2017-Sep-14 22:08N 35°49' E 014°32'0 0.0
2017-Sep-14 21:56N 35°49' E 014°32'0 0.0
2017-Sep-14 21:20N 35°49' E 014°32'0 0.0
2017-Sep-14 20:59N 35°49' E 014°32'0 0.0
2017-Sep-14 20:29N 35°49' E 014°32'0 0.0
2017-Sep-14 19:56N 35°49' E 014°32'0 0.0
2017-Sep-14 19:26N 35°49' E 014°32'0 0.0
2017-Sep-14 18:59N 35°49' E 014°32'0 0.0
2017-Sep-14 18:17N 35°49' E 014°32'0 0.0
2017-Sep-14 17:56N 35°49' E 014°32'0 0.0
2017-Sep-14 17:20N 35°49' E 014°32'0 0.0
2017-Sep-14 16:59N 35°49' E 014°32'0 0.0
2017-Sep-14 16:29N 35°49' E 014°32'0 0.0
2017-Sep-14 15:53N 35°49' E 014°32'0 0.0
2017-Sep-14 15:26N 35°49' E 014°32'0 0.0
2017-Sep-14 14:41N 35°49' E 014°32'0 0.0
2017-Sep-14 14:26N 35°49' E 014°32'0 0.6
2017-Sep-14 14:00N 35°49' E 014°32'2 4.7
2017-Sep-14 13:30N 35°48' E 014°35'1 2.5
2017-Sep-14 13:00N 35°47' E 014°36'1 2.0
2017-Sep-14 12:30N 35°47' E 014°37'611.5
2017-Sep-14 12:00N 35°46' E 014°44'1221.4
2017-Sep-14 11:28N 35°47' E 014°58'1021.2
2017-Sep-14 10:59N 35°48' E 015°11'1021.2
2017-Sep-14 10:30N 35°49' E 015°23'1121.4
2017-Sep-14 10:00N 35°50' E 015°36'9022.1
2017-Sep-14 05:56N 35°59' E 017°27'28421.7
2017-Sep-13 16:50N 36°29' E 023°17'722.2
2017-Sep-13 16:30N 36°36' E 023°20'1222.1
2017-Sep-13 15:59N 36°47' E 023°27'1122.2
2017-Sep-13 15:30N 36°56' E 023°32'3120.3
2017-Sep-13 14:00N 37°25' E 023°44'918.4
2017-Sep-13 13:30N 37°35' E 023°45'919.1
2017-Sep-13 13:00N 37°43' E 023°40'1019.3
2017-Sep-13 12:31N 37°52' E 023°37'5 9.3
2017-Sep-13 12:00N 37°57' E 023°36'0 0.5
2017-Sep-13 11:28N 37°57' E 023°36'0 0.0
2017-Sep-13 10:58N 37°57' E 023°36'0 0.0
2017-Sep-13 10:25N 37°57' E 023°36'0 0.0
2017-Sep-13 09:49N 37°57' E 023°36'0 0.0
2017-Sep-13 09:28N 37°57' E 023°36'0 0.0
2017-Sep-13 08:58N 37°57' E 023°36'0 0.0
2017-Sep-13 08:28N 37°57' E 023°36'0 0.0
2017-Sep-13 07:58N 37°57' E 023°36'0 0.0
2017-Sep-13 07:28N 37°57' E 023°36'0 0.0
2017-Sep-13 06:58N 37°57' E 023°36'0 0.0
2017-Sep-13 06:25N 37°57' E 023°36'0 0.0
2017-Sep-13 05:58N 37°57' E 023°36'0 0.0
2017-Sep-13 05:28N 37°57' E 023°36'0 0.0
2017-Sep-13 04:58N 37°57' E 023°36'0 0.0
2017-Sep-13 04:25N 37°57' E 023°36'0 0.0
2017-Sep-13 03:58N 37°57' E 023°36'0 0.0
2017-Sep-13 03:28N 37°57' E 023°36'0 0.0
2017-Sep-13 02:58N 37°57' E 023°36'0 0.0
2017-Sep-13 02:28N 37°57' E 023°36'0 0.0
2017-Sep-13 01:58N 37°57' E 023°36'0 0.0
2017-Sep-13 01:25N 37°57' E 023°36'0 0.0
2017-Sep-13 00:58N 37°57' E 023°36'0 0.0
2017-Sep-13 00:25N 37°57' E 023°36'0 0.0
2017-Sep-12 23:58N 37°57' E 023°36'0 0.0
2017-Sep-12 23:28N 37°57' E 023°36'0 0.0
2017-Sep-12 22:55N 37°57' E 023°36'0 0.0
2017-Sep-12 22:28N 37°57' E 023°36'0 0.0
2017-Sep-12 21:58N 37°57' E 023°36'0 0.1
2017-Sep-12 21:30N 37°57' E 023°36'1 2.5
2017-Sep-12 21:00N 37°56' E 023°37'2 3.1
2017-Sep-12 20:30N 37°55' E 023°37'1 2.7
2017-Sep-12 20:00N 37°54' E 023°36'0 0.8
2017-Sep-12 19:30N 37°54' E 023°35'0 0.8
2017-Sep-12 19:01N 37°54' E 023°36'2 4.6
2017-Sep-12 18:31N 37°52' E 023°38'3 6.8
2017-Sep-12 18:00N 37°49' E 023°40'3 6.8
2017-Sep-12 17:31N 37°46' E 023°42'3 6.8
2017-Sep-12 17:01N 37°43' E 023°44'3 6.8
2017-Sep-12 16:31N 37°40' E 023°45'3 6.9
2017-Sep-12 16:00N 37°37' E 023°47'4 7.1
2017-Sep-12 15:31N 37°33' E 023°49'4 7.6
2017-Sep-12 15:00N 37°30' E 023°51'36515.3
2017-Sep-11 15:09N 33°25' E 029°22'317.1
2017-Sep-11 15:00N 33°23' E 029°25'2116.8
2017-Sep-11 13:47N 33°09' E 029°43'517.4
2017-Sep-11 13:30N 33°06' E 029°48'1817.3
2017-Sep-11 12:27N 32°55' E 030°05'817.6
2017-Sep-11 12:00N 32°50' E 030°12'1017.8
2017-Sep-11 11:27N 32°43' E 030°20'919.8
2017-Sep-11 11:00N 32°38' E 030°28'1019.9
2017-Sep-11 10:30N 32°31' E 030°38'1019.7
2017-Sep-11 10:00N 32°25' E 030°47'3420.2
2017-Sep-11 08:19N 32°03' E 031°17'620.2
2017-Sep-11 08:00N 31°58' E 031°23'1019.9
2017-Sep-11 07:30N 31°52' E 031°32'1020.0
2017-Sep-11 07:00N 31°46' E 031°41'1019.2
2017-Sep-11 06:30N 31°38' E 031°47'816.4
2017-Sep-11 06:00N 31°30' E 031°46'2 0.1
2017-Sep-10 17:31N 31°28' E 031°45'0 4.4
2017-Sep-10 17:30N 31°28' E 031°45'15 8.8
2017-Sep-10 15:47N 31°41' E 031°55'516.7
2017-Sep-10 15:30N 31°39' E 032°01'815.5
2017-Sep-10 15:00N 31°36' E 032°09'1615.9
2017-Sep-10 14:00N 31°26' E 032°23'612.5
2017-Sep-10 13:30N 31°20' E 032°22'611.7
2017-Sep-10 13:00N 31°14' E 032°21'4 7.5
2017-Sep-10 12:30N 31°10' E 032°20'5 9.7
2017-Sep-10 12:00N 31°06' E 032°18'5 9.1
2017-Sep-10 11:30N 31°01' E 032°19'5 9.0
2017-Sep-10 11:00N 30°57' E 032°19'  
Track history (hours):
 
Tides and Currents Weather Stations Pressure Air Temp Water Temp Dewpoint Dewpoint Depression Visibility Wind Speed Wind Dir Waves Ship Positions

Songa Calabria

Last reported at 2017-Sep-17 10:03 UTC. Time now 2017-Sep-21 05:28 UTC.
Position N 38°09' E 024°56'.

Length 261 m; draft 9.9 m.

Type: Ship (hazmat cat A). MMSI: 636018105.

Date/timePositionNaut miles runAvg speedWind from/ knotsBaromVisibWave heightAir tempDewpointWater temp
2017-Sep-17 10:03N 38°09' E 024°56'1 8.5
2017-Sep-17 10:00N 38°09' E 024°56'4 8.5
2017-Sep-17 09:30N 38°06' E 024°51'59 8.4
2017-Sep-17 02:24N 37°17' E 024°09'3 8.5
2017-Sep-17 02:00N 37°15' E 024°06'4 8.6
2017-Sep-17 01:30N 37°12' E 024°02'4 8.6
2017-Sep-17 01:00N 37°08' E 023°58'4 8.8
2017-Sep-17 00:30N 37°05' E 023°55'4 8.9
2017-Sep-17 00:00N 37°02' E 023°51'4 8.7
2017-Sep-16 23:30N 36°59' E 023°47'4 8.7
2017-Sep-16 23:00N 36°55' E 023°44'4 8.6
2017-Sep-16 22:30N 36°52' E 023°40'4 8.7
2017-Sep-16 22:00N 36°49' E 023°37'4 8.5
2017-Sep-16 21:30N 36°45' E 023°34'4 8.3
2017-Sep-16 21:00N 36°42' E 023°30'4 8.0
2017-Sep-16 20:30N 36°39' E 023°27'4 8.3
2017-Sep-16 20:00N 36°36' E 023°24'6 8.5
2017-Sep-16 19:17N 36°31' E 023°19'2 8.5
2017-Sep-16 19:00N 36°29' E 023°17'18811.5
2017-Sep-16 02:43N 36°09' E 019°26'420.1
2017-Sep-16 02:30N 36°08' E 019°21'1820.0
2017-Sep-16 01:36N 36°07' E 018°58'5820.4
2017-Sep-15 22:45N 36°02' E 017°46'520.1
2017-Sep-15 22:30N 36°01' E 017°40'6320.3
2017-Sep-15 19:23N 35°56' E 016°22'1120.1
2017-Sep-15 18:51N 35°55' E 016°09'720.1
2017-Sep-15 18:29N 35°55' E 016°00'1020.4
2017-Sep-15 17:59N 35°54' E 015°48'1020.4
2017-Sep-15 17:30N 35°53' E 015°35'1020.2
2017-Sep-15 17:00N 35°52' E 015°23'1020.5
2017-Sep-15 16:30N 35°50' E 015°11'1020.3
2017-Sep-15 16:00N 35°50' E 014°58'1020.1
2017-Sep-15 15:30N 35°49' E 014°46'918.6
2017-Sep-15 15:00N 35°49' E 014°34'1 3.0
2017-Sep-15 14:30N 35°49' E 014°32'0 0.0
2017-Sep-15 13:55N 35°49' E 014°32'0 0.0
2017-Sep-15 13:28N 35°49' E 014°32'0 0.0
2017-Sep-14 22:08N 35°49' E 014°32'0 0.0
2017-Sep-14 21:56N 35°49' E 014°32'0 0.0
2017-Sep-14 21:20N 35°49' E 014°32'0 0.0
2017-Sep-14 20:59N 35°49' E 014°32'0 0.0
2017-Sep-14 20:29N 35°49' E 014°32'0 0.0
2017-Sep-14 19:56N 35°49' E 014°32'0 0.0
2017-Sep-14 19:26N 35°49' E 014°32'0 0.0
2017-Sep-14 18:59N 35°49' E 014°32'0 0.0
2017-Sep-14 18:17N 35°49' E 014°32'0 0.0
2017-Sep-14 17:56N 35°49' E 014°32'0 0.0
2017-Sep-14 17:20N 35°49' E 014°32'0 0.0
2017-Sep-14 16:59N 35°49' E 014°32'0 0.0
2017-Sep-14 16:29N 35°49' E 014°32'0 0.0
2017-Sep-14 15:53N 35°49' E 014°32'0 0.0
2017-Sep-14 15:26N 35°49' E 014°32'0 0.0
2017-Sep-14 14:41N 35°49' E 014°32'0 0.0
2017-Sep-14 14:26N 35°49' E 014°32'0 0.6
2017-Sep-14 14:00N 35°49' E 014°32'2 4.7
2017-Sep-14 13:30N 35°48' E 014°35'1 2.5
2017-Sep-14 13:00N 35°47' E 014°36'1 2.0
2017-Sep-14 12:30N 35°47' E 014°37'611.5
2017-Sep-14 12:00N 35°46' E 014°44'1221.4
2017-Sep-14 11:28N 35°47' E 014°58'1021.2
2017-Sep-14 10:59N 35°48' E 015°11'1021.2
2017-Sep-14 10:30N 35°49' E 015°23'1121.4
2017-Sep-14 10:00N 35°50' E 015°36'9022.1
2017-Sep-14 05:56N 35°59' E 017°27'28421.7
2017-Sep-13 16:50N 36°29' E 023°17'722.2
2017-Sep-13 16:30N 36°36' E 023°20'1222.1
2017-Sep-13 15:59N 36°47' E 023°27'1122.2
2017-Sep-13 15:30N 36°56' E 023°32'3120.3
2017-Sep-13 14:00N 37°25' E 023°44'918.4
2017-Sep-13 13:30N 37°35' E 023°45'919.1
2017-Sep-13 13:00N 37°43' E 023°40'1019.3
2017-Sep-13 12:31N 37°52' E 023°37'5 9.3
2017-Sep-13 12:00N 37°57' E 023°36'0 0.5
2017-Sep-13 11:28N 37°57' E 023°36'0 0.0
2017-Sep-13 10:58N 37°57' E 023°36'0 0.0
2017-Sep-13 10:25N 37°57' E 023°36'0 0.0
2017-Sep-13 09:49N 37°57' E 023°36'0 0.0
2017-Sep-13 09:28N 37°57' E 023°36'0 0.0
2017-Sep-13 08:58N 37°57' E 023°36'0 0.0
2017-Sep-13 08:28N 37°57' E 023°36'0 0.0
2017-Sep-13 07:58N 37°57' E 023°36'0 0.0
2017-Sep-13 07:28N 37°57' E 023°36'0 0.0
2017-Sep-13 06:58N 37°57' E 023°36'0 0.0
2017-Sep-13 06:25N 37°57' E 023°36'0 0.0
2017-Sep-13 05:58N 37°57' E 023°36'0 0.0
2017-Sep-13 05:28N 37°57' E 023°36'0 0.0
2017-Sep-13 04:58N 37°57' E 023°36'0 0.0
2017-Sep-13 04:25N 37°57' E 023°36'0 0.0
2017-Sep-13 03:58N 37°57' E 023°36'0 0.0
2017-Sep-13 03:28N 37°57' E 023°36'0 0.0
2017-Sep-13 02:58N 37°57' E 023°36'0 0.0
2017-Sep-13 02:28N 37°57' E 023°36'0 0.0
2017-Sep-13 01:58N 37°57' E 023°36'0 0.0
2017-Sep-13 01:25N 37°57' E 023°36'0 0.0
2017-Sep-13 00:58N 37°57' E 023°36'0 0.0
2017-Sep-13 00:25N 37°57' E 023°36'0 0.0
2017-Sep-12 23:58N 37°57' E 023°36'0 0.0
2017-Sep-12 23:28N 37°57' E 023°36'0 0.0
2017-Sep-12 22:55N 37°57' E 023°36'0 0.0
2017-Sep-12 22:28N 37°57' E 023°36'0 0.0
2017-Sep-12 21:58N 37°57' E 023°36'0 0.1
2017-Sep-12 21:30N 37°57' E 023°36'1 2.5
2017-Sep-12 21:00N 37°56' E 023°37'2 3.1
2017-Sep-12 20:30N 37°55' E 023°37'1 2.7
2017-Sep-12 20:00N 37°54' E 023°36'0 0.8
2017-Sep-12 19:30N 37°54' E 023°35'0 0.8
2017-Sep-12 19:01N 37°54' E 023°36'2 4.6
2017-Sep-12 18:31N 37°52' E 023°38'3 6.8
2017-Sep-12 18:00N 37°49' E 023°40'3 6.8
2017-Sep-12 17:31N 37°46' E 023°42'3 6.8
2017-Sep-12 17:01N 37°43' E 023°44'3 6.8
2017-Sep-12 16:31N 37°40' E 023°45'3 6.9
2017-Sep-12 16:00N 37°37' E 023°47'4 7.1
2017-Sep-12 15:31N 37°33' E 023°49'4 7.6
2017-Sep-12 15:00N 37°30' E 023°51'36515.3
2017-Sep-11 15:09N 33°25' E 029°22'317.1
2017-Sep-11 15:00N 33°23' E 029°25'2116.8
2017-Sep-11 13:47N 33°09' E 029°43'517.4
2017-Sep-11 13:30N 33°06' E 029°48'1817.3
2017-Sep-11 12:27N 32°55' E 030°05'817.6
2017-Sep-11 12:00N 32°50' E 030°12'1017.8
2017-Sep-11 11:27N 32°43' E 030°20'919.8
2017-Sep-11 11:00N 32°38' E 030°28'1019.9
2017-Sep-11 10:30N 32°31' E 030°38'1019.7
2017-Sep-11 10:00N 32°25' E 030°47'3420.2
2017-Sep-11 08:19N 32°03' E 031°17'620.2
2017-Sep-11 08:00N 31°58' E 031°23'1019.9
2017-Sep-11 07:30N 31°52' E 031°32'1020.0
2017-Sep-11 07:00N 31°46' E 031°41'1019.2
2017-Sep-11 06:30N 31°38' E 031°47'816.4
2017-Sep-11 06:00N 31°30' E 031°46'2 0.1
2017-Sep-10 17:31N 31°28' E 031°45'0 4.4
2017-Sep-10 17:30N 31°28' E 031°45'15 8.8
2017-Sep-10 15:47N 31°41' E 031°55'516.7
2017-Sep-10 15:30N 31°39' E 032°01'815.5
2017-Sep-10 15:00N 31°36' E 032°09'1615.9
2017-Sep-10 14:00N 31°26' E 032°23'612.5
2017-Sep-10 13:30N 31°20' E 032°22'611.7
2017-Sep-10 13:00N 31°14' E 032°21'4 7.5
2017-Sep-10 12:30N 31°10' E 032°20'5 9.7
2017-Sep-10 12:00N 31°06' E 032°18'5 9.1
2017-Sep-10 11:30N 31°01' E 032°19'5 9.0
2017-Sep-10 11:00N 30°57' E 032°19'  

Dump ship's entire track history